sensor_id;sensor_type;location;lat;lon;timestamp;pressure;altitude;pressure_sealevel;temperature;humidity
32033;BME280;31720;52.638;9.216;2023-09-30T00:02:57;102077.94;;;13.51;100.00
32033;BME280;31720;52.638;9.216;2023-09-30T00:06:00;102067.22;;;13.54;100.00
32033;BME280;31720;52.638;9.216;2023-09-30T00:09:02;102071.78;;;13.50;100.00
32033;BME280;31720;52.638;9.216;2023-09-30T00:12:06;102076.47;;;13.43;100.00
32033;BME280;31720;52.638;9.216;2023-09-30T00:15:09;102095.03;;;13.42;100.00
32033;BME280;31720;52.638;9.216;2023-09-30T00:18:11;102082.81;;;13.39;100.00
32033;BME280;31720;52.638;9.216;2023-09-30T00:21:13;102081.91;;;13.40;100.00
32033;BME280;31720;52.638;9.216;2023-09-30T00:24:15;102082.09;;;13.36;100.00
32033;BME280;31720;52.638;9.216;2023-09-30T00:27:18;102089.22;;;13.34;100.00
32033;BME280;31720;52.638;9.216;2023-09-30T00:30:19;102091.00;;;13.33;100.00
32033;BME280;31720;52.638;9.216;2023-09-30T00:33:22;102091.47;;;13.23;100.00
32033;BME280;31720;52.638;9.216;2023-09-30T00:36:23;102098.47;;;13.24;100.00
32033;BME280;31720;52.638;9.216;2023-09-30T00:39:24;102097.81;;;13.17;100.00
32033;BME280;31720;52.638;9.216;2023-09-30T00:42:31;102090.16;;;13.11;100.00
32033;BME280;31720;52.638;9.216;2023-09-30T00:45:32;102078.75;;;13.10;100.00
32033;BME280;31720;52.638;9.216;2023-09-30T00:48:34;102079.53;;;13.12;100.00
32033;BME280;31720;52.638;9.216;2023-09-30T00:51:37;102081.41;;;13.10;100.00
32033;BME280;31720;52.638;9.216;2023-09-30T00:54:39;102079.63;;;13.11;100.00
32033;BME280;31720;52.638;9.216;2023-09-30T00:57:42;102083.38;;;13.05;100.00
32033;BME280;31720;52.638;9.216;2023-09-30T01:00:44;102085.22;;;13.03;100.00
32033;BME280;31720;52.638;9.216;2023-09-30T01:03:45;102082.84;;;12.97;100.00
32033;BME280;31720;52.638;9.216;2023-09-30T01:06:47;102088.22;;;12.94;100.00
32033;BME280;31720;52.638;9.216;2023-09-30T01:09:49;102086.41;;;12.96;100.00
32033;BME280;31720;52.638;9.216;2023-09-30T01:12:52;102103.16;;;12.95;100.00
32033;BME280;31720;52.638;9.216;2023-09-30T01:15:53;102104.22;;;12.91;100.00
32033;BME280;31720;52.638;9.216;2023-09-30T01:18:55;102109.50;;;12.91;100.00
32033;BME280;31720;52.638;9.216;2023-09-30T01:21:58;102108.75;;;12.87;100.00
32033;BME280;31720;52.638;9.216;2023-09-30T01:24:59;102113.34;;;12.82;100.00
32033;BME280;31720;52.638;9.216;2023-09-30T01:28:01;102116.13;;;12.79;100.00
32033;BME280;31720;52.638;9.216;2023-09-30T01:31:06;102111.75;;;12.78;100.00
32033;BME280;31720;52.638;9.216;2023-09-30T01:34:08;102122.31;;;12.78;100.00
32033;BME280;31720;52.638;9.216;2023-09-30T01:37:12;102116.19;;;12.78;100.00
32033;BME280;31720;52.638;9.216;2023-09-30T01:40:13;102110.91;;;12.78;100.00
32033;BME280;31720;52.638;9.216;2023-09-30T01:43:15;102105.84;;;12.72;100.00
32033;BME280;31720;52.638;9.216;2023-09-30T01:46:16;102107.72;;;12.69;100.00
32033;BME280;31720;52.638;9.216;2023-09-30T01:49:18;102103.41;;;12.67;100.00
32033;BME280;31720;52.638;9.216;2023-09-30T01:52:20;102110.63;;;12.63;100.00
32033;BME280;31720;52.638;9.216;2023-09-30T01:55:22;102112.22;;;12.67;100.00
32033;BME280;31720;52.638;9.216;2023-09-30T01:58:23;102123.81;;;12.63;100.00
32033;BME280;31720;52.638;9.216;2023-09-30T02:01:25;102107.13;;;12.63;100.00
32033;BME280;31720;52.638;9.216;2023-09-30T02:04:27;102095.66;;;12.64;100.00
32033;BME280;31720;52.638;9.216;2023-09-30T02:07:30;102100.91;;;12.64;100.00
32033;BME280;31720;52.638;9.216;2023-09-30T02:10:32;102098.28;;;12.64;100.00
32033;BME280;31720;52.638;9.216;2023-09-30T02:13:34;102110.47;;;12.66;100.00
32033;BME280;31720;52.638;9.216;2023-09-30T02:16:37;102115.81;;;12.65;100.00
32033;BME280;31720;52.638;9.216;2023-09-30T02:19:39;102116.00;;;12.60;100.00
32033;BME280;31720;52.638;9.216;2023-09-30T02:22:42;102114.28;;;12.59;100.00
32033;BME280;31720;52.638;9.216;2023-09-30T02:25:44;102127.41;;;12.61;100.00
32033;BME280;31720;52.638;9.216;2023-09-30T02:28:46;102139.66;;;12.62;100.00
32033;BME280;31720;52.638;9.216;2023-09-30T02:31:47;102151.06;;;12.62;100.00
32033;BME280;31720;52.638;9.216;2023-09-30T02:34:49;102141.69;;;12.55;100.00
32033;BME280;31720;52.638;9.216;2023-09-30T02:37:52;102146.03;;;12.56;100.00
32033;BME280;31720;52.638;9.216;2023-09-30T02:40:54;102138.56;;;12.46;100.00
32033;BME280;31720;52.638;9.216;2023-09-30T02:43:55;102136.78;;;12.46;100.00
32033;BME280;31720;52.638;9.216;2023-09-30T02:46:57;102142.16;;;12.43;100.00
32033;BME280;31720;52.638;9.216;2023-09-30T02:49:58;102132.47;;;12.43;100.00
32033;BME280;31720;52.638;9.216;2023-09-30T02:53:01;102142.91;;;12.47;100.00
32033;BME280;31720;52.638;9.216;2023-09-30T02:56:03;102142.22;;;12.41;100.00
32033;BME280;31720;52.638;9.216;2023-09-30T02:59:05;102130.66;;;12.46;100.00
32033;BME280;31720;52.638;9.216;2023-09-30T03:02:07;102129.41;;;12.32;100.00
32033;BME280;31720;52.638;9.216;2023-09-30T03:05:09;102138.97;;;12.35;100.00
32033;BME280;31720;52.638;9.216;2023-09-30T03:08:11;102143.28;;;12.37;100.00
32033;BME280;31720;52.638;9.216;2023-09-30T03:11:13;102157.25;;;12.39;100.00
32033;BME280;31720;52.638;9.216;2023-09-30T03:14:14;102153.63;;;12.42;100.00
32033;BME280;31720;52.638;9.216;2023-09-30T03:17:16;102144.75;;;12.44;100.00
32033;BME280;31720;52.638;9.216;2023-09-30T03:20:17;102141.13;;;12.47;100.00
32033;BME280;31720;52.638;9.216;2023-09-30T03:23:22;102142.22;;;12.41;100.00
32033;BME280;31720;52.638;9.216;2023-09-30T03:26:28;102137.13;;;12.37;100.00
32033;BME280;31720;52.638;9.216;2023-09-30T03:29:30;102131.13;;;12.33;100.00
32033;BME280;31720;52.638;9.216;2023-09-30T03:32:31;102139.09;;;12.32;100.00
32033;BME280;31720;52.638;9.216;2023-09-30T03:35:33;102138.97;;;12.35;100.00
32033;BME280;31720;52.638;9.216;2023-09-30T03:38:38;102132.16;;;12.29;100.00
32033;BME280;31720;52.638;9.216;2023-09-30T03:41:41;102138.41;;;12.27;100.00
32033;BME280;31720;52.638;9.216;2023-09-30T03:44:43;102139.31;;;12.26;100.00
32033;BME280;31720;52.638;9.216;2023-09-30T03:47:44;102138.25;;;12.31;100.00
32033;BME280;31720;52.638;9.216;2023-09-30T03:50:45;102134.78;;;12.29;100.00
32033;BME280;31720;52.638;9.216;2023-09-30T03:53:48;102140.91;;;12.30;100.00
32033;BME280;31720;52.638;9.216;2023-09-30T03:56:50;102132.31;;;12.25;100.00
32033;BME280;31720;52.638;9.216;2023-09-30T03:59:51;102126.09;;;12.27;100.00
32033;BME280;31720;52.638;9.216;2023-09-30T04:02:53;102122.47;;;12.30;100.00
32033;BME280;31720;52.638;9.216;2023-09-30T04:05:58;102128.56;;;12.32;100.00
32033;BME280;31720;52.638;9.216;2023-09-30T04:09:01;102133.94;;;12.29;100.00
32033;BME280;31720;52.638;9.216;2023-09-30T04:12:08;102133.88;;;12.30;100.00
32033;BME280;31720;52.638;9.216;2023-09-30T04:15:09;102139.28;;;12.27;100.00
32033;BME280;31720;52.638;9.216;2023-09-30T04:18:12;102136.75;;;12.24;100.00
32033;BME280;31720;52.638;9.216;2023-09-30T04:21:14;102140.13;;;12.28;100.00
32033;BME280;31720;52.638;9.216;2023-09-30T04:24:17;102136.56;;;12.29;100.00
32033;BME280;31720;52.638;9.216;2023-09-30T04:27:20;102144.41;;;12.30;100.00
32033;BME280;31720;52.638;9.216;2023-09-30T04:30:22;102143.56;;;12.30;100.00
32033;BME280;31720;52.638;9.216;2023-09-30T04:33:23;102151.28;;;12.34;100.00
32033;BME280;31720;52.638;9.216;2023-09-30T04:36:25;102154.00;;;12.33;100.00
32033;BME280;31720;52.638;9.216;2023-09-30T04:39:28;102150.44;;;12.34;100.00
32033;BME280;31720;52.638;9.216;2023-09-30T04:42:29;102152.97;;;12.37;100.00
32033;BME280;31720;52.638;9.216;2023-09-30T04:45:31;102156.56;;;12.34;100.00
32033;BME280;31720;52.638;9.216;2023-09-30T04:48:33;102148.59;;;12.36;100.00
32033;BME280;31720;52.638;9.216;2023-09-30T04:51:34;102147.69;;;12.37;100.00
32033;BME280;31720;52.638;9.216;2023-09-30T04:54:37;102151.47;;;12.30;100.00
32033;BME280;31720;52.638;9.216;2023-09-30T04:57:38;102146.09;;;12.33;100.00
32033;BME280;31720;52.638;9.216;2023-09-30T05:00:40;102151.97;;;12.39;100.00
32033;BME280;31720;52.638;9.216;2023-09-30T05:03:42;102145.84;;;12.39;100.00
32033;BME280;31720;52.638;9.216;2023-09-30T05:06:44;102145.78;;;12.40;100.00
32033;BME280;31720;52.638;9.216;2023-09-30T05:09:46;102159.19;;;12.34;100.00
32033;BME280;31720;52.638;9.216;2023-09-30T05:12:48;102154.78;;;12.35;100.00
32033;BME280;31720;52.638;9.216;2023-09-30T05:15:49;102160.88;;;12.37;100.00
32033;BME280;31720;52.638;9.216;2023-09-30T05:18:51;102149.56;;;12.33;100.00
32033;BME280;31720;52.638;9.216;2023-09-30T05:21:53;102153.88;;;12.36;100.00
32033;BME280;31720;52.638;9.216;2023-09-30T05:24:56;102157.25;;;12.39;100.00
32033;BME280;31720;52.638;9.216;2023-09-30T05:27:57;102153.75;;;12.39;100.00
32033;BME280;31720;52.638;9.216;2023-09-30T05:30:58;102156.53;;;12.36;100.00
32033;BME280;31720;52.638;9.216;2023-09-30T05:34:00;102168.09;;;12.32;100.00
32033;BME280;31720;52.638;9.216;2023-09-30T05:37:04;102175.00;;;12.34;100.00
32033;BME280;31720;52.638;9.216;2023-09-30T05:40:08;102168.88;;;12.34;100.00
32033;BME280;31720;52.638;9.216;2023-09-30T05:43:16;102178.63;;;12.32;100.00
32033;BME280;31720;52.638;9.216;2023-09-30T05:46:18;102184.00;;;12.29;100.00
32033;BME280;31720;52.638;9.216;2023-09-30T05:49:19;102188.25;;;12.33;100.00
32033;BME280;31720;52.638;9.216;2023-09-30T05:52:21;102189.97;;;12.34;100.00
32033;BME280;31720;52.638;9.216;2023-09-30T05:55:24;102192.56;;;12.35;100.00
32033;BME280;31720;52.638;9.216;2023-09-30T05:58:25;102197.78;;;12.37;100.00
32033;BME280;31720;52.638;9.216;2023-09-30T06:01:27;102205.03;;;12.30;100.00
32033;BME280;31720;52.638;9.216;2023-09-30T06:04:28;102204.06;;;12.33;100.00
32033;BME280;31720;52.638;9.216;2023-09-30T06:07:30;102212.84;;;12.33;100.00
32033;BME280;31720;52.638;9.216;2023-09-30T06:10:32;102217.19;;;12.34;100.00
32033;BME280;31720;52.638;9.216;2023-09-30T06:13:35;102224.94;;;12.39;100.00
32033;BME280;31720;52.638;9.216;2023-09-30T06:16:37;102226.72;;;12.38;100.00
32033;BME280;31720;52.638;9.216;2023-09-30T06:19:38;102225.84;;;12.38;100.00
32033;BME280;31720;52.638;9.216;2023-09-30T06:22:40;102231.13;;;12.38;100.00
32033;BME280;31720;52.638;9.216;2023-09-30T06:25:42;102225.84;;;12.38;100.00
32033;BME280;31720;52.638;9.216;2023-09-30T06:28:44;102234.69;;;12.37;100.00
32033;BME280;31720;52.638;9.216;2023-09-30T06:31:47;102223.97;;;12.41;100.00
32033;BME280;31720;52.638;9.216;2023-09-30T06:34:49;102230.88;;;12.44;100.00
32033;BME280;31720;52.638;9.216;2023-09-30T06:37:50;102228.06;;;12.49;100.00
32033;BME280;31720;52.638;9.216;2023-09-30T06:40:53;102226.31;;;12.49;100.00
32033;BME280;31720;52.638;9.216;2023-09-30T06:43:56;102227.97;;;12.52;100.00
32033;BME280;31720;52.638;9.216;2023-09-30T06:46:59;102238.28;;;12.58;100.00
32033;BME280;31720;52.638;9.216;2023-09-30T06:50:00;102252.19;;;12.63;100.00
32033;BME280;31720;52.638;9.216;2023-09-30T06:53:07;102245.81;;;12.68;100.00
32033;BME280;31720;52.638;9.216;2023-09-30T06:56:11;102236.78;;;12.74;100.00
32033;BME280;31720;52.638;9.216;2023-09-30T06:59:13;102243.75;;;12.77;100.00
32033;BME280;31720;52.638;9.216;2023-09-30T07:02:14;102253.13;;;12.84;100.00
32033;BME280;31720;52.638;9.216;2023-09-30T07:05:15;102242.56;;;12.84;100.00
32033;BME280;31720;52.638;9.216;2023-09-30T07:08:17;102245.28;;;12.82;100.00
32033;BME280;31720;52.638;9.216;2023-09-30T07:11:29;102248.78;;;12.83;100.00
32033;BME280;31720;52.638;9.216;2023-09-30T07:14:32;102261.72;;;12.89;100.00
32033;BME280;31720;52.638;9.216;2023-09-30T07:17:34;102266.09;;;12.90;100.00
32033;BME280;31720;52.638;9.216;2023-09-30T07:20:35;102271.97;;;12.97;100.00
32033;BME280;31720;52.638;9.216;2023-09-30T07:23:37;102266.44;;;13.03;100.00
32033;BME280;31720;52.638;9.216;2023-09-30T07:26:40;102269.66;;;13.11;100.00
32033;BME280;31720;52.638;9.216;2023-09-30T07:29:41;102276.41;;;13.18;100.00
32033;BME280;31720;52.638;9.216;2023-09-30T07:32:43;102281.56;;;13.21;100.00
32033;BME280;31720;52.638;9.216;2023-09-30T07:35:44;102284.28;;;13.19;100.00
32033;BME280;31720;52.638;9.216;2023-09-30T07:38:45;102287.53;;;13.26;100.00
32033;BME280;31720;52.638;9.216;2023-09-30T07:41:48;102288.34;;;13.28;100.00
32033;BME280;31720;52.638;9.216;2023-09-30T07:44:50;102282.81;;;13.34;100.00
32033;BME280;31720;52.638;9.216;2023-09-30T07:47:51;102284.41;;;13.38;100.00
32033;BME280;31720;52.638;9.216;2023-09-30T07:50:53;102299.22;;;13.42;100.00
32033;BME280;31720;52.638;9.216;2023-09-30T07:53:54;102294.69;;;13.46;100.00
32033;BME280;31720;52.638;9.216;2023-09-30T07:56:58;102298.66;;;13.56;100.00
32033;BME280;31720;52.638;9.216;2023-09-30T08:00:00;102300.25;;;13.60;100.00
32033;BME280;31720;52.638;9.216;2023-09-30T08:03:03;102303.75;;;13.61;100.00
32033;BME280;31720;52.638;9.216;2023-09-30T08:06:07;102307.06;;;13.66;100.00
32033;BME280;31720;52.638;9.216;2023-09-30T08:09:10;102309.66;;;13.67;100.00
32033;BME280;31720;52.638;9.216;2023-09-30T08:12:14;102310.56;;;13.66;100.00
32033;BME280;31720;52.638;9.216;2023-09-30T08:15:16;102309.66;;;13.67;100.00
32033;BME280;31720;52.638;9.216;2023-09-30T08:18:17;102308.84;;;13.65;100.00
32033;BME280;31720;52.638;9.216;2023-09-30T08:21:18;102318.50;;;13.66;100.00
32033;BME280;31720;52.638;9.216;2023-09-30T08:24:20;102312.16;;;13.70;100.00
32033;BME280;31720;52.638;9.216;2023-09-30T08:27:23;102316.31;;;13.76;100.00
32033;BME280;31720;52.638;9.216;2023-09-30T08:30:24;102324.09;;;13.81;100.00
32033;BME280;31720;52.638;9.216;2023-09-30T08:33:26;102324.69;;;13.87;100.00
32033;BME280;31720;52.638;9.216;2023-09-30T08:36:31;102323.50;;;13.94;100.00
32033;BME280;31720;52.638;9.216;2023-09-30T08:39:37;102327.91;;;13.94;100.00
32033;BME280;31720;52.638;9.216;2023-09-30T08:42:40;102337.25;;;14.03;100.00
32033;BME280;31720;52.638;9.216;2023-09-30T08:45:43;102337.78;;;14.11;100.00
32033;BME280;31720;52.638;9.216;2023-09-30T08:48:48;102334.84;;;14.17;100.00
32033;BME280;31720;52.638;9.216;2023-09-30T08:51:50;102334.66;;;14.21;100.00
32033;BME280;31720;52.638;9.216;2023-09-30T08:54:53;102334.53;;;14.25;100.00
32033;BME280;31720;52.638;9.216;2023-09-30T08:57:56;102335.28;;;14.28;100.00
32033;BME280;31720;52.638;9.216;2023-09-30T09:00:58;102339.44;;;14.34;100.00
32033;BME280;31720;52.638;9.216;2023-09-30T09:04:00;102329.50;;;14.39;100.00
32033;BME280;31720;52.638;9.216;2023-09-30T09:07:03;102340.91;;;14.41;100.00
32033;BME280;31720;52.638;9.216;2023-09-30T09:10:06;102340.69;;;14.45;100.00
32033;BME280;31720;52.638;9.216;2023-09-30T09:13:10;102340.25;;;14.56;100.00
32033;BME280;31720;52.638;9.216;2023-09-30T09:16:11;102330.25;;;14.63;100.00
32033;BME280;31720;52.638;9.216;2023-09-30T09:19:13;102338.56;;;14.74;100.00
32033;BME280;31720;52.638;9.216;2023-09-30T09:22:16;102340.50;;;14.89;100.00
32033;BME280;31720;52.638;9.216;2023-09-30T09:25:17;102338.34;;;14.97;100.00
32033;BME280;31720;52.638;9.216;2023-09-30T09:28:33;102323.53;;;15.12;100.00
32033;BME280;31720;52.638;9.216;2023-09-30T09:31:36;102322.09;;;15.24;100.00
32033;BME280;31720;52.638;9.216;2023-09-30T09:34:38;102327.97;;;15.31;100.00
32033;BME280;31720;52.638;9.216;2023-09-30T09:37:39;102329.25;;;15.41;100.00
32033;BME280;31720;52.638;9.216;2023-09-30T09:40:40;102335.03;;;15.49;100.00
32033;BME280;31720;52.638;9.216;2023-09-30T09:43:43;102329.34;;;15.57;100.00
32033;BME280;31720;52.638;9.216;2023-09-30T09:46:45;102323.72;;;15.64;100.00
32033;BME280;31720;52.638;9.216;2023-09-30T09:49:50;102322.25;;;15.76;100.00
32033;BME280;31720;52.638;9.216;2023-09-30T09:52:52;102330.38;;;15.90;100.00
32033;BME280;31720;52.638;9.216;2023-09-30T09:55:56;102333.72;;;15.94;100.00
32033;BME280;31720;52.638;9.216;2023-09-30T09:59:01;102333.41;;;16.00;100.00
32033;BME280;31720;52.638;9.216;2023-09-30T10:02:10;102326.84;;;16.07;100.00
32033;BME280;31720;52.638;9.216;2023-09-30T10:05:12;102320.63;;;16.08;100.00
32033;BME280;31720;52.638;9.216;2023-09-30T10:08:15;102317.41;;;16.19;100.00
32033;BME280;31720;52.638;9.216;2023-09-30T10:11:20;102318.13;;;16.22;100.00
32033;BME280;31720;52.638;9.216;2023-09-30T10:14:31;102318.66;;;16.29;100.00
32033;BME280;31720;52.638;9.216;2023-09-30T10:17:57;102320.75;;;16.40;100.00
32033;BME280;31720;52.638;9.216;2023-09-30T10:21:07;102330.19;;;16.45;100.00
32033;BME280;31720;52.638;9.216;2023-09-30T10:24:28;102323.69;;;16.51;100.00
32033;BME280;31720;52.638;9.216;2023-09-30T10:27:31;102316.56;;;16.52;100.00
32033;BME280;31720;52.638;9.216;2023-09-30T10:30:34;102326.78;;;16.59;100.00
32033;BME280;31720;52.638;9.216;2023-09-30T10:33:36;102334.16;;;16.70;100.00
32033;BME280;31720;52.638;9.216;2023-09-30T10:36:38;102346.22;;;16.77;100.00
32033;BME280;31720;52.638;9.216;2023-09-30T10:39:54;102350.94;;;16.88;100.00
32033;BME280;31720;52.638;9.216;2023-09-30T10:42:56;102317.97;;;16.92;100.00
32033;BME280;31720;52.638;9.216;2023-09-30T10:45:59;102323.88;;;16.97;100.00
32033;BME280;31720;52.638;9.216;2023-09-30T10:49:17;102328.94;;;17.02;100.00
32033;BME280;31720;52.638;9.216;2023-09-30T10:52:32;102331.19;;;17.09;100.00
32033;BME280;31720;52.638;9.216;2023-09-30T10:55:33;102335.38;;;17.13;100.00
32033;BME280;31720;52.638;9.216;2023-09-30T10:58:39;102331.88;;;17.13;100.00
32033;BME280;31720;52.638;9.216;2023-09-30T11:01:41;102328.84;;;17.03;100.00
32033;BME280;31720;52.638;9.216;2023-09-30T11:04:47;102324.56;;;17.01;100.00
32033;BME280;31720;52.638;9.216;2023-09-30T11:07:48;102327.31;;;16.99;100.00
32033;BME280;31720;52.638;9.216;2023-09-30T11:10:51;102331.25;;;17.08;100.00
32033;BME280;31720;52.638;9.216;2023-09-30T11:13:53;102319.88;;;17.21;100.00
32033;BME280;31720;52.638;9.216;2023-09-30T11:16:57;102318.84;;;17.24;100.00
32033;BME280;31720;52.638;9.216;2023-09-30T11:19:59;102319.69;;;17.24;100.00
32033;BME280;31720;52.638;9.216;2023-09-30T11:23:00;102322.94;;;17.30;100.00
32033;BME280;31720;52.638;9.216;2023-09-30T11:26:02;102320.38;;;17.28;100.00
32033;BME280;31720;52.638;9.216;2023-09-30T11:29:06;102326.06;;;17.22;100.00
32033;BME280;31720;52.638;9.216;2023-09-30T11:32:23;102318.41;;;17.16;100.00
32033;BME280;31720;52.638;9.216;2023-09-30T11:35:27;102319.19;;;17.18;100.00
32033;BME280;31720;52.638;9.216;2023-09-30T11:38:28;102321.91;;;17.32;100.00
32033;BME280;31720;52.638;9.216;2023-09-30T11:41:34;102318.72;;;17.57;100.00
32033;BME280;31720;52.638;9.216;2023-09-30T11:44:44;102317.75;;;17.90;100.00
32033;BME280;31720;52.638;9.216;2023-09-30T11:47:48;102324.97;;;18.02;100.00
32033;BME280;31720;52.638;9.216;2023-09-30T11:50:49;102331.38;;;17.84;100.00
32033;BME280;31720;52.638;9.216;2023-09-30T11:53:53;102328.91;;;17.65;100.00
32033;BME280;31720;52.638;9.216;2023-09-30T11:56:58;102324.53;;;17.80;100.00
32033;BME280;31720;52.638;9.216;2023-09-30T11:59:59;102337.66;;;18.13;100.00
32033;BME280;31720;52.638;9.216;2023-09-30T12:03:03;102324.25;;;18.14;100.00
32033;BME280;31720;52.638;9.216;2023-09-30T12:06:04;102317.53;;;17.93;100.00
32033;BME280;31720;52.638;9.216;2023-09-30T12:09:06;102305.75;;;17.83;100.00
32033;BME280;31720;52.638;9.216;2023-09-30T12:12:09;102301.94;;;17.87;100.00
32033;BME280;31720;52.638;9.216;2023-09-30T12:15:11;102313.59;;;18.14;100.00
32033;BME280;31720;52.638;9.216;2023-09-30T12:18:15;102304.03;;;18.40;100.00
32033;BME280;31720;52.638;9.216;2023-09-30T12:21:19;102296.81;;;18.42;100.00
32033;BME280;31720;52.638;9.216;2023-09-30T12:24:21;102292.72;;;18.65;100.00
32033;BME280;31720;52.638;9.216;2023-09-30T12:27:24;102285.56;;;18.66;100.00
32033;BME280;31720;52.638;9.216;2023-09-30T12:30:25;102279.03;;;18.86;100.00
32033;BME280;31720;52.638;9.216;2023-09-30T12:33:28;102274.63;;;18.99;100.00
32033;BME280;31720;52.638;9.216;2023-09-30T12:36:30;102277.56;;;19.09;100.00
32033;BME280;31720;52.638;9.216;2023-09-30T12:39:33;102275.44;;;19.14;100.00
32033;BME280;31720;52.638;9.216;2023-09-30T12:42:34;102276.25;;;19.29;100.00
32033;BME280;31720;52.638;9.216;2023-09-30T12:45:36;102274.06;;;19.62;100.00
32033;BME280;31720;52.638;9.216;2023-09-30T12:48:40;102271.28;;;19.64;100.00
32033;BME280;31720;52.638;9.216;2023-09-30T12:51:42;102264.59;;;19.57;100.00
32033;BME280;31720;52.638;9.216;2023-09-30T12:54:43;102268.34;;;19.54;100.00
32033;BME280;31720;52.638;9.216;2023-09-30T12:57:45;102263.81;;;19.42;100.00
32033;BME280;31720;52.638;9.216;2023-09-30T13:00:46;102260.72;;;19.08;100.00
32033;BME280;31720;52.638;9.216;2023-09-30T13:03:49;102263.44;;;18.80;100.00
32033;BME280;31720;52.638;9.216;2023-09-30T13:06:51;102255.53;;;18.64;100.00
32033;BME280;31720;52.638;9.216;2023-09-30T13:09:52;102266.78;;;18.40;100.00
32033;BME280;31720;52.638;9.216;2023-09-30T13:12:54;102257.75;;;18.71;100.00
32033;BME280;31720;52.638;9.216;2023-09-30T13:15:55;102259.97;;;18.92;100.00
32033;BME280;31720;52.638;9.216;2023-09-30T13:18:58;102269.63;;;19.07;100.00
32033;BME280;31720;52.638;9.216;2023-09-30T13:21:59;102266.97;;;19.34;100.00
32033;BME280;31720;52.638;9.216;2023-09-30T13:25:01;102264.31;;;19.07;100.00
32033;BME280;31720;52.638;9.216;2023-09-30T13:28:03;102259.22;;;19.44;100.00
32033;BME280;31720;52.638;9.216;2023-09-30T13:31:04;102259.97;;;19.73;100.00
32033;BME280;31720;52.638;9.216;2023-09-30T13:34:07;102266.84;;;19.90;100.00
32033;BME280;31720;52.638;9.216;2023-09-30T13:37:08;102255.28;;;19.89;100.00
32033;BME280;31720;52.638;9.216;2023-09-30T13:40:11;102253.88;;;19.71;100.00
32033;BME280;31720;52.638;9.216;2023-09-30T13:43:13;102241.00;;;20.16;100.00
32033;BME280;31720;52.638;9.216;2023-09-30T13:46:14;102254.78;;;20.35;100.00
32033;BME280;31720;52.638;9.216;2023-09-30T13:49:17;102252.09;;;20.48;100.00
32033;BME280;31720;52.638;9.216;2023-09-30T13:52:19;102240.47;;;20.23;100.00
32033;BME280;31720;52.638;9.216;2023-09-30T13:55:20;102238.75;;;20.35;100.00
32033;BME280;31720;52.638;9.216;2023-09-30T13:58:21;102231.28;;;20.15;100.00
32033;BME280;31720;52.638;9.216;2023-09-30T14:01:23;102232.22;;;19.75;100.00
32033;BME280;31720;52.638;9.216;2023-09-30T14:04:26;102232.63;;;19.30;100.00
32033;BME280;31720;52.638;9.216;2023-09-30T14:07:27;102234.81;;;19.10;100.00
32033;BME280;31720;52.638;9.216;2023-09-30T14:10:29;102234.59;;;18.86;100.00
32033;BME280;31720;52.638;9.216;2023-09-30T14:13:30;102228.06;;;18.63;100.00
32033;BME280;31720;52.638;9.216;2023-09-30T14:16:32;102222.66;;;18.36;100.00
32033;BME280;31720;52.638;9.216;2023-09-30T14:19:35;102225.94;;;18.68;100.00
32033;BME280;31720;52.638;9.216;2023-09-30T14:22:37;102228.47;;;18.71;100.00
32033;BME280;31720;52.638;9.216;2023-09-30T14:25:38;102230.88;;;18.89;100.00
32033;BME280;31720;52.638;9.216;2023-09-30T14:28:40;102229.28;;;18.86;100.00
32033;BME280;31720;52.638;9.216;2023-09-30T14:31:42;102206.81;;;18.90;100.00
32033;BME280;31720;52.638;9.216;2023-09-30T14:34:45;102217.25;;;18.93;100.00
32033;BME280;31720;52.638;9.216;2023-09-30T14:37:46;102206.63;;;18.79;100.00
32033;BME280;31720;52.638;9.216;2023-09-30T14:40:48;102212.25;;;18.74;100.00
32033;BME280;31720;52.638;9.216;2023-09-30T14:43:50;102210.25;;;18.64;100.00
32033;BME280;31720;52.638;9.216;2023-09-30T14:46:51;102198.09;;;18.60;100.00
32033;BME280;31720;52.638;9.216;2023-09-30T14:49:54;102191.38;;;18.54;100.00
32033;BME280;31720;52.638;9.216;2023-09-30T14:52:56;102185.66;;;18.46;100.00
32033;BME280;31720;52.638;9.216;2023-09-30T14:55:57;102188.34;;;18.32;100.00
32033;BME280;31720;52.638;9.216;2023-09-30T14:58:58;102179.88;;;18.25;100.00
32033;BME280;31720;52.638;9.216;2023-09-30T15:02:00;102169.75;;;18.17;100.00
32033;BME280;31720;52.638;9.216;2023-09-30T15:05:03;102178.66;;;18.16;100.00
32033;BME280;31720;52.638;9.216;2023-09-30T15:08:05;102169.44;;;18.22;100.00
32033;BME280;31720;52.638;9.216;2023-09-30T15:11:12;102155.19;;;18.23;100.00
32033;BME280;31720;52.638;9.216;2023-09-30T15:14:15;102162.31;;;18.22;100.00
32033;BME280;31720;52.638;9.216;2023-09-30T15:17:16;102166.56;;;18.25;100.00
32033;BME280;31720;52.638;9.216;2023-09-30T15:20:19;102170.19;;;18.24;100.00
32033;BME280;31720;52.638;9.216;2023-09-30T15:23:20;102177.16;;;18.12;100.00
32033;BME280;31720;52.638;9.216;2023-09-30T15:26:22;102188.53;;;18.14;100.00
32033;BME280;31720;52.638;9.216;2023-09-30T15:29:23;102189.50;;;18.13;100.00
32033;BME280;31720;52.638;9.216;2023-09-30T15:32:25;102191.50;;;18.10;100.00
32033;BME280;31720;52.638;9.216;2023-09-30T15:35:28;102190.47;;;18.12;100.00
32033;BME280;31720;52.638;9.216;2023-09-30T15:38:30;102197.56;;;18.12;100.00
32033;BME280;31720;52.638;9.216;2023-09-30T15:41:31;102190.63;;;18.09;100.00
32033;BME280;31720;52.638;9.216;2023-09-30T15:44:34;102192.06;;;18.15;100.00